Time;durP1;ratioP1;P1;durP2;ratioP2;P2;SDS_P1;SDS_P2;PMS_P1;PMS_P2;Temp;Humidity;BMP_temperature;BMP_pressure;BME280_temperature;BME280_humidity;BME280_pressure;Samples;Min_cycle;Max_cycle;Signal;HPM_P1;HPM_P2
2022/02/16 00:01:14;;;;;;;2.53;2.40;;;;;;;;;;6242035;22;20470;-78
2022/02/16 00:03:42;;;;;;;3.47;3.28;;;;;;;;;;6277358;22;20035;-78
2022/02/16 00:06:10;;;;;;;2.20;2.00;;;;;;;;;;6280182;22;20015;-78
2022/02/16 00:08:38;;;;;;;2.63;2.42;;;;;;;;;;6241736;22;20034;-78
2022/02/16 00:11:06;;;;;;;3.60;2.55;;;;;;;;;;6280811;22;20015;-78
2022/02/16 00:13:34;;;;;;;2.45;2.35;;;;;;;;;;6268113;22;20606;-78
2022/02/16 00:16:08;;;;;;;2.72;2.55;;;;;;;;;;6275659;22;20024;-78
2022/02/16 00:18:40;;;;;;;4.65;3.35;;;;;;;;;;6280594;22;20046;-78
2022/02/16 00:21:08;;;;;;;1.98;1.77;;;;;;;;;;6271485;22;20023;-77
2022/02/16 00:23:36;;;;;;;2.67;2.47;;;;;;;;;;6277604;22;20031;-78
2022/02/16 00:26:06;;;;;;;3.20;3.00;;;;;;;;;;6279806;22;20011;-78
2022/02/16 00:28:34;;;;;;;2.15;2.03;;;;;;;;;;6272389;22;20023;-78
2022/02/16 00:31:02;;;;;;;2.30;2.20;;;;;;;;;;6280207;22;20457;-78
2022/02/16 00:33:30;;;;;;;3.25;2.95;;;;;;;;;;6269580;22;20024;-78
2022/02/16 00:36:02;;;;;;;2.72;2.47;;;;;;;;;;6275231;22;20019;-78
2022/02/16 00:38:30;;;;;;;2.25;1.92;;;;;;;;;;6280062;22;20012;-77
2022/02/16 00:40:58;;;;;;;1.92;1.83;;;;;;;;;;6271311;22;20252;-78
2022/02/16 00:43:26;;;;;;;2.80;2.60;;;;;;;;;;6250878;22;20682;-78
2022/02/16 00:45:54;;;;;;;2.00;1.90;;;;;;;;;;6280100;22;20027;-78
2022/02/16 00:48:22;;;;;;;2.22;1.98;;;;;;;;;;6247033;22;20027;-77
2022/02/16 00:50:51;;;;;;;2.72;1.98;;;;;;;;;;6253005;22;20019;-77
2022/02/16 00:53:19;;;;;;;2.15;2.05;;;;;;;;;;6242432;22;20343;-78
2022/02/16 00:55:48;;;;;;;2.40;2.30;;;;;;;;;;6249269;22;20020;-78
2022/02/16 00:58:17;;;;;;;3.50;2.67;;;;;;;;;;6252581;22;20016;-79
2022/02/16 01:00:48;;;;;;;3.25;3.05;;;;;;;;;;6245011;22;20031;-78
2022/02/16 01:03:18;;;;;;;2.53;2.42;;;;;;;;;;6242064;22;20347;-77
2022/02/16 01:05:50;;;;;;;4.55;2.45;;;;;;;;;;6252581;22;20022;-77
2022/02/16 01:08:18;;;;;;;2.42;2.33;;;;;;;;;;6246807;22;20035;-77
2022/02/16 01:10:46;;;;;;;4.22;3.92;;;;;;;;;;6280044;22;20016;-77
2022/02/16 01:13:17;;;;;;;2.53;2.33;;;;;;;;;;6242521;22;20024;-77
2022/02/16 01:15:46;;;;;;;3.05;2.83;;;;;;;;;;6249614;22;20019;-78
2022/02/16 01:18:17;;;;;;;7.10;2.97;;;;;;;;;;6252502;22;20012;-77
2022/02/16 01:20:47;;;;;;;3.42;3.13;;;;;;;;;;6217052;22;20027;-77
2022/02/16 01:23:15;;;;;;;3.25;2.95;;;;;;;;;;6278711;22;20062;-78
2022/02/16 01:25:46;;;;;;;4.18;3.15;;;;;;;;;;6252362;22;20438;-77
2022/02/16 01:28:32;;;;;;;3.65;3.05;;;;;;;;;;6245349;22;20028;-77
2022/02/16 01:31:02;;;;;;;3.28;2.95;;;;;;;;;;6252280;22;20019;-77
2022/02/16 01:33:32;;;;;;;3.63;3.33;;;;;;;;;;6241604;22;20023;-77
2022/02/16 01:36:01;;;;;;;4.32;3.42;;;;;;;;;;6275186;22;20023;-77
2022/02/16 01:38:29;;;;;;;4.28;3.67;;;;;;;;;;6252120;22;20016;-77
2022/02/16 01:41:17;;;;;;;6.07;5.50;;;;;;;;;;6242503;22;20024;-77
2022/02/16 01:43:54;;;;;;;2.95;2.75;;;;;;;;;;6247869;22;20023;-77
2022/02/16 01:46:22;;;;;;;4.40;3.20;;;;;;;;;;6252138;22;20466;-78
2022/02/16 01:48:55;;;;;;;4.55;2.72;;;;;;;;;;6244085;22;20034;-77
2022/02/16 01:51:27;;;;;;;3.33;2.47;;;;;;;;;;6250089;22;20463;-77
2022/02/16 01:53:56;;;;;;;4.90;3.33;;;;;;;;;;6251975;22;20067;-77
2022/02/16 01:56:25;;;;;;;3.38;2.65;;;;;;;;;;6246154;22;20020;-77
2022/02/16 01:58:53;;;;;;;4.85;3.33;;;;;;;;;;6251884;22;20012;-77
2022/02/16 02:01:48;;;;;;;3.88;2.47;;;;;;;;;;6205649;22;20028;-77
2022/02/16 02:04:17;;;;;;;6.05;2.35;;;;;;;;;;6246605;22;20023;-77
2022/02/16 02:06:46;;;;;;;2.95;1.98;;;;;;;;;;6251870;22;20012;-77
2022/02/16 02:09:14;;;;;;;2.25;2.15;;;;;;;;;;6242197;22;20031;-78
2022/02/16 02:11:43;;;;;;;2.40;2.25;;;;;;;;;;6276269;22;20054;-78
2022/02/16 02:14:13;;;;;;;4.85;2.45;;;;;;;;;;6252582;22;20019;-77
2022/02/16 02:16:54;;;;;;;2.80;2.60;;;;;;;;;;6243823;22;20027;-77
2022/02/16 02:19:24;;;;;;;2.72;2.53;;;;;;;;;;6278250;22;20019;-76
2022/02/16 02:22:03;;;;;;;3.15;2.50;;;;;;;;;;6241674;22;20031;-78
2022/02/16 02:24:31;;;;;;;3.08;2.80;;;;;;;;;;6245769;22;20354;-77
2022/02/16 02:26:59;;;;;;;3.00;2.53;;;;;;;;;;6226547;22;20016;-78
2022/02/16 02:29:28;;;;;;;3.22;2.88;;;;;;;;;;6214959;22;20024;-78
2022/02/16 02:32:02;;;;;;;3.75;2.65;;;;;;;;;;6274983;22;20405;-77
2022/02/16 02:34:30;;;;;;;2.90;2.65;;;;;;;;;;6252407;22;20343;-77
2022/02/16 02:36:58;;;;;;;2.80;2.60;;;;;;;;;;6244097;22;20023;-77
2022/02/16 02:39:26;;;;;;;2.70;2.58;;;;;;;;;;6249733;22;20026;-78
2022/02/16 02:41:54;;;;;;;4.60;4.20;;;;;;;;;;6279202;22;20016;-77
2022/02/16 02:44:55;;;;;;;2.92;2.70;;;;;;;;;;6245762;22;20039;-77
2022/02/16 02:47:23;;;;;;;2.90;2.58;;;;;;;;;;6249697;22;20553;-77
2022/02/16 02:49:53;;;;;;;4.22;2.85;;;;;;;;;;6251116;22;20019;-77
2022/02/16 02:52:21;;;;;;;2.53;2.42;;;;;;;;;;6245952;22;20023;-77
2022/02/16 02:54:49;;;;;;;3.20;2.97;;;;;;;;;;6252590;22;20018;-77
2022/02/16 02:57:17;;;;;;;3.10;2.90;;;;;;;;;;6243352;22;20043;-77
2022/02/16 02:59:45;;;;;;;4.38;2.53;;;;;;;;;;6276021;22;20402;-78
2022/02/16 03:02:14;;;;;;;4.57;4.18;;;;;;;;;;6253729;22;20016;-77
2022/02/16 03:04:42;;;;;;;3.00;2.80;;;;;;;;;;6273178;22;20031;-77
2022/02/16 03:07:11;;;;;;;3.00;2.00;;;;;;;;;;6252516;22;20030;-77
2022/02/16 03:09:44;;;;;;;3.97;3.75;;;;;;;;;;6242094;22;20015;-77
2022/02/16 03:12:11;;;;;;;3.50;3.15;;;;;;;;;;6275511;22;20031;-77
2022/02/16 03:14:40;;;;;;;8.85;4.97;;;;;;;;;;6253000;22;20023;-78
2022/02/16 03:17:08;;;;;;;3.78;3.47;;;;;;;;;;6243741;22;20016;-78
2022/02/16 03:19:36;;;;;;;3.15;2.85;;;;;;;;;;6250593;22;20026;-78
2022/02/16 03:22:05;;;;;;;3.20;2.88;;;;;;;;;;6253080;22;20432;-78
2022/02/16 03:24:34;;;;;;;2.95;2.40;;;;;;;;;;6246535;22;20024;-77
2022/02/16 03:27:04;;;;;;;5.55;2.78;;;;;;;;;;6253354;22;20011;-77
2022/02/16 03:29:50;;;;;;;3.67;2.83;;;;;;;;;;6226443;22;20046;-77
2022/02/16 03:32:18;;;;;;;3.08;2.88;;;;;;;;;;6247548;22;20019;-77
2022/02/16 03:34:46;;;;;;;3.42;3.17;;;;;;;;;;6253297;22;20016;-77
2022/02/16 03:37:15;;;;;;;3.45;3.15;;;;;;;;;;6271460;22;20020;-77
2022/02/16 03:39:44;;;;;;;3.85;3.55;;;;;;;;;;6249559;22;20343;-77
2022/02/16 03:42:14;;;;;;;4.13;3.05;;;;;;;;;;6227996;22;20015;-77
2022/02/16 03:44:42;;;;;;;2.90;2.60;;;;;;;;;;6219970;22;20020;-77
2022/02/16 03:47:13;;;;;;;2.95;2.75;;;;;;;;;;6252078;22;20019;-77
2022/02/16 03:49:42;;;;;;;3.22;2.92;;;;;;;;;;6253034;22;20011;-77
2022/02/16 03:52:10;;;;;;;3.40;3.10;;;;;;;;;;6247696;22;20027;-77
2022/02/16 03:54:38;;;;;;;3.70;3.40;;;;;;;;;;6252476;22;20667;-77
2022/02/16 03:57:07;;;;;;;4.78;3.30;;;;;;;;;;6244101;22;20024;-77
2022/02/16 03:59:35;;;;;;;3.15;2.83;;;;;;;;;;6249707;22;20672;-77
2022/02/16 04:02:23;;;;;;;2.97;2.67;;;;;;;;;;6269476;22;20019;-77
2022/02/16 04:04:52;;;;;;;3.70;3.28;;;;;;;;;;6244504;22;20031;-77
2022/02/16 04:07:21;;;;;;;5.75;2.90;;;;;;;;;;6251067;22;20455;-77
2022/02/16 04:09:50;;;;;;;4.70;3.58;;;;;;;;;;6252494;22;20439;-77
2022/02/16 04:12:18;;;;;;;3.92;3.63;;;;;;;;;;6247306;22;20030;-77
2022/02/16 04:14:46;;;;;;;4.50;3.70;;;;;;;;;;6252253;22;20011;-77
2022/02/16 04:17:14;;;;;;;3.47;3.17;;;;;;;;;;6243634;22;20030;-77
2022/02/16 04:19:42;;;;;;;4.20;3.65;;;;;;;;;;6249712;22;20339;-77
2022/02/16 04:22:14;;;;;;;4.25;3.75;;;;;;;;;;6252668;22;20141;-77
2022/02/16 04:24:43;;;;;;;4.30;3.40;;;;;;;;;;6244849;22;20030;-77
2022/02/16 04:27:11;;;;;;;4.63;4.18;;;;;;;;;;6251015;22;20012;-78
2022/02/16 04:29:40;;;;;;;5.75;5.25;;;;;;;;;;6251533;22;20620;-77
2022/02/16 04:32:09;;;;;;;4.70;4.05;;;;;;;;;;6247373;22;20020;-77
2022/02/16 04:34:38;;;;;;;4.68;4.25;;;;;;;;;;6252563;22;20335;-77
2022/02/16 04:37:07;;;;;;;4.80;4.40;;;;;;;;;;6270449;22;20027;-77
2022/02/16 04:39:36;;;;;;;6.25;4.63;;;;;;;;;;6249796;22;20027;-77
2022/02/16 04:42:04;;;;;;;5.18;4.78;;;;;;;;;;6252531;22;20019;-77
2022/02/16 04:44:32;;;;;;;3.72;3.42;;;;;;;;;;6271963;22;20043;-77
2022/02/16 04:47:19;;;;;;;6.45;4.68;;;;;;;;;;6250827;22;20012;-77
2022/02/16 04:49:47;;;;;;;6.50;5.90;;;;;;;;;;6252213;22;20579;-77
2022/02/16 04:52:15;;;;;;;5.43;4.90;;;;;;;;;;6247131;22;20030;-77
2022/02/16 04:54:43;;;;;;;5.47;4.80;;;;;;;;;;6279417;22;20019;-77
2022/02/16 04:57:11;;;;;;;7.60;5.32;;;;;;;;;;6242505;22;20035;-77
2022/02/16 04:59:45;;;;;;;4.70;4.28;;;;;;;;;;6248232;22;20326;-77
2022/02/16 05:02:13;;;;;;;5.10;4.07;;;;;;;;;;6252254;22;20011;-77
2022/02/16 05:04:41;;;;;;;4.35;4.00;;;;;;;;;;6245004;22;20666;-88
2022/02/16 05:07:10;;;;;;;5.22;4.13;;;;;;;;;;6216662;22;20016;-87
2022/02/16 05:09:38;;;;;;;5.63;5.07;;;;;;;;;;6215998;22;20022;-87
2022/02/16 05:12:07;;;;;;;7.60;6.90;;;;;;;;;;6247859;22;20355;-87
2022/02/16 05:14:35;;;;;;;7.75;5.55;;;;;;;;;;6216356;22;20027;-87
2022/02/16 05:17:08;;;;;;;7.15;6.55;;;;;;;;;;6192814;22;20455;-85
2022/02/16 05:19:40;;;;;;;4.15;3.33;;;;;;;;;;6217196;22;20020;-86
2022/02/16 05:22:08;;;;;;;4.85;4.53;;;;;;;;;;6252810;22;20052;-85
2022/02/16 05:24:41;;;;;;;5.70;5.15;;;;;;;;;;6192781;22;20467;-86
2022/02/16 05:27:10;;;;;;;5.35;4.85;;;;;;;;;;6216719;22;20019;-86
2022/02/16 05:29:39;;;;;;;4.82;4.32;;;;;;;;;;6216364;22;20031;-85
2022/02/16 05:32:10;;;;;;;6.20;4.35;;;;;;;;;;6217258;22;20354;-86
2022/02/16 05:34:41;;;;;;;9.05;5.30;;;;;;;;;;6252335;22;20012;-85
2022/02/16 05:37:10;;;;;;;9.45;4.90;;;;;;;;;;6216808;22;20032;-84
2022/02/16 05:39:38;;;;;;;7.85;5.78;;;;;;;;;;6249599;22;20027;-86
2022/02/16 05:42:11;;;;;;;8.43;4.68;;;;;;;;;;6252416;22;20027;-87
2022/02/16 05:44:52;;;;;;;7.68;5.55;;;;;;;;;;6215297;22;20034;-87
2022/02/16 05:47:21;;;;;;;4.65;4.25;;;;;;;;;;6191724;22;20019;-87
2022/02/16 05:49:49;;;;;;;6.90;5.15;;;;;;;;;;6226277;22;20016;-87
2022/02/16 05:52:17;;;;;;;5.78;5.28;;;;;;;;;;6190986;22;20020;-86
2022/02/16 05:54:46;;;;;;;7.13;6.40;;;;;;;;;;6216944;22;20026;-87
2022/02/16 05:57:14;;;;;;;7.68;4.70;;;;;;;;;;6190380;22;20024;-88
2022/02/16 05:59:42;;;;;;;4.93;4.30;;;;;;;;;;6247849;22;20043;-87
2022/02/16 06:02:17;;;;;;;6.70;5.93;;;;;;;;;;6193374;22;20058;-87
2022/02/16 06:04:48;;;;;;;8.32;5.18;;;;;;;;;;6217032;22;20020;-84
2022/02/16 06:07:16;;;;;;;4.97;4.55;;;;;;;;;;6215406;22;20016;-86
2022/02/16 06:09:44;;;;;;;6.65;5.78;;;;;;;;;;6251286;22;20011;-84
2022/02/16 06:12:12;;;;;;;10.68;6.30;;;;;;;;;;6215635;22;20023;-86
2022/02/16 06:14:40;;;;;;;6.85;5.40;;;;;;;;;;6215741;22;20016;-88
2022/02/16 06:17:12;;;;;;;8.48;6.55;;;;;;;;;;6216852;22;20032;-84
2022/02/16 06:19:42;;;;;;;8.73;8.00;;;;;;;;;;6248982;22;20024;-85
2022/02/16 06:22:11;;;;;;;7.35;6.65;;;;;;;;;;6216390;22;20015;-85
2022/02/16 06:24:40;;;;;;;8.77;7.30;;;;;;;;;;6219398;22;20459;-85
2022/02/16 06:27:09;;;;;;;6.32;5.72;;;;;;;;;;6215356;22;20557;-85
2022/02/16 06:29:38;;;;;;;8.25;5.55;;;;;;;;;;6215042;22;20525;-90
2022/02/16 06:32:25;;;;;;;7.07;5.82;;;;;;;;;;6240922;22;20026;-89
2022/02/16 06:34:56;;;;;;;8.30;5.82;;;;;;;;;;6215945;22;20023;-87
2022/02/16 06:37:24;;;;;;;10.55;9.27;;;;;;;;;;6216934;22;20026;-87
2022/02/16 06:39:53;;;;;;;5.70;5.18;;;;;;;;;;6214787;22;20023;-87
2022/02/16 06:42:23;;;;;;;9.85;6.45;;;;;;;;;;6216428;22;20019;-87
2022/02/16 06:44:51;;;;;;;15.63;5.93;;;;;;;;;;6190333;22;20043;-87
2022/02/16 06:47:24;;;;;;;8.38;6.93;;;;;;;;;;6250884;22;20016;-88
2022/02/16 06:49:52;;;;;;;10.20;6.45;;;;;;;;;;6251485;22;20038;-88
2022/02/16 06:52:20;;;;;;;5.88;4.75;;;;;;;;;;6245821;22;20210;-87
2022/02/16 06:54:49;;;;;;;11.95;8.27;;;;;;;;;;6215873;22;20019;-87
2022/02/16 06:57:17;;;;;;;10.07;7.50;;;;;;;;;;6217551;22;20028;-87
2022/02/16 06:59:58;;;;;;;9.60;6.27;;;;;;;;;;6215496;22;20404;-88
2022/02/16 07:02:26;;;;;;;8.55;6.53;;;;;;;;;;6226366;22;20015;-85
2022/02/16 07:04:54;;;;;;;12.90;7.50;;;;;;;;;;6244198;22;20034;-85
2022/02/16 07:07:24;;;;;;;10.85;6.65;;;;;;;;;;6214804;22;20019;-86
2022/02/16 07:09:52;;;;;;;16.27;10.88;;;;;;;;;;6216299;22;20015;-85
2022/02/16 07:12:21;;;;;;;8.68;7.22;;;;;;;;;;6244512;22;20443;-88
2022/02/16 07:14:54;;;;;;;7.68;6.15;;;;;;;;;;6251480;22;20395;-87
2022/02/16 07:17:25;;;;;;;5.47;4.82;;;;;;;;;;6242404;22;20016;-87
2022/02/16 07:19:54;;;;;;;6.93;6.28;;;;;;;;;;6248500;22;20016;-88
2022/02/16 07:22:26;;;;;;;;;;;;;;;;;;6216730;22;20443;-87
2022/02/16 07:24:54;;;;;;;6.75;5.55;;;;;;;;;;6243487;22;20327;-87
2022/02/16 07:27:24;;;;;;;9.05;7.35;;;;;;;;;;6215462;22;20022;-87
2022/02/16 07:29:52;;;;;;;8.88;7.25;;;;;;;;;;6216512;22;20763;-88
2022/02/16 07:32:20;;;;;;;8.15;6.88;;;;;;;;;;6215909;22;20396;-87
2022/02/16 07:34:49;;;;;;;7.20;5.05;;;;;;;;;;6216704;22;20016;-88
2022/02/16 07:37:17;;;;;;;10.70;6.15;;;;;;;;;;6215841;22;20028;-87
2022/02/16 07:39:46;;;;;;;9.60;6.10;;;;;;;;;;6191261;22;20031;-88
2022/02/16 07:42:18;;;;;;;8.50;7.00;;;;;;;;;;6218787;22;20020;-87
2022/02/16 07:44:56;;;;;;;7.30;6.20;;;;;;;;;;6216469;22;20063;-88
2022/02/16 07:47:27;;;;;;;6.43;5.90;;;;;;;;;;6217145;22;20022;-87
2022/02/16 07:50:03;;;;;;;11.57;7.05;;;;;;;;;;6253219;22;20035;-88
2022/02/16 07:53:04;;;;;;;8.10;6.30;;;;;;;;;;6174627;22;20020;-88
2022/02/16 07:55:37;;;;;;;9.25;7.18;;;;;;;;;;6217019;22;20023;-87
2022/02/16 07:58:06;;;;;;;10.85;7.00;;;;;;;;;;6217363;22;20020;-88
2022/02/16 08:00:37;;;;;;;8.18;5.35;;;;;;;;;;6217398;22;20019;-87
2022/02/16 08:03:12;;;;;;;9.10;7.22;;;;;;;;;;6217655;22;20016;-88
2022/02/16 08:05:42;;;;;;;7.22;6.05;;;;;;;;;;6217865;22;20020;-88
2022/02/16 08:08:19;;;;;;;8.55;4.95;;;;;;;;;;6224497;22;20019;-88
2022/02/16 08:10:51;;;;;;;6.40;5.90;;;;;;;;;;6192695;22;20462;-89
2022/02/16 08:13:21;;;;;;;6.85;5.82;;;;;;;;;;6192765;22;20020;-87
2022/02/16 08:16:03;;;;;;;7.68;5.10;;;;;;;;;;6220268;22;20035;-88
2022/02/16 08:18:31;;;;;;;6.20;5.63;;;;;;;;;;6253637;22;20011;-88
2022/02/16 08:21:00;;;;;;;8.40;6.05;;;;;;;;;;6245025;22;20034;-88
2022/02/16 08:23:38;;;;;;;6.10;4.85;;;;;;;;;;6218820;22;20020;-88
2022/02/16 08:26:06;;;;;;;7.45;5.70;;;;;;;;;;6193239;22;20785;-88
2022/02/16 08:28:35;;;;;;;6.28;5.68;;;;;;;;;;6246056;22;20031;-88
2022/02/16 08:31:05;;;;;;;7.10;5.65;;;;;;;;;;6216869;22;20019;-89
2022/02/16 08:33:53;;;;;;;5.97;4.90;;;;;;;;;;6232298;22;20067;-89
2022/02/16 08:36:22;;;;;;;6.38;5.72;;;;;;;;;;6247658;22;20468;-89
2022/02/16 08:38:51;;;;;;;8.05;6.22;;;;;;;;;;6228092;22;20012;-88
2022/02/16 08:41:19;;;;;;;7.50;5.85;;;;;;;;;;6270190;22;20027;-89
2022/02/16 08:43:47;;;;;;;14.43;5.60;;;;;;;;;;6276875;22;20447;-88
2022/02/16 08:46:16;;;;;;;6.93;6.20;;;;;;;;;;6242702;22;20023;-88
2022/02/16 08:48:47;;;;;;;5.20;4.68;;;;;;;;;;6242284;22;20023;-88
2022/02/16 08:51:23;;;;;;;6.82;4.75;;;;;;;;;;6252749;22;20015;-88
2022/02/16 08:53:51;;;;;;;5.38;4.22;;;;;;;;;;6217203;22;20015;-88
2022/02/16 08:56:19;;;;;;;7.55;6.07;;;;;;;;;;6217183;22;20020;-88
2022/02/16 08:58:47;;;;;;;6.93;6.22;;;;;;;;;;6216883;22;20015;-88
2022/02/16 09:01:15;;;;;;;6.82;5.57;;;;;;;;;;6243740;22;20023;-89
2022/02/16 09:03:43;;;;;;;9.32;5.80;;;;;;;;;;6242084;22;20764;-87
2022/02/16 09:06:12;;;;;;;4.88;4.20;;;;;;;;;;6253217;22;20015;-86
2022/02/16 09:08:41;;;;;;;4.43;4.00;;;;;;;;;;6191969;22;20032;-86
2022/02/16 09:11:09;;;;;;;7.22;5.13;;;;;;;;;;6216733;22;20481;-86
2022/02/16 09:13:38;;;;;;;4.43;3.92;;;;;;;;;;6217481;22;20015;-86
2022/02/16 09:16:06;;;;;;;8.43;5.07;;;;;;;;;;6216981;22;20026;-85
2022/02/16 09:18:34;;;;;;;5.50;5.00;;;;;;;;;;6253072;22;20016;-86
2022/02/16 09:21:05;;;;;;;5.65;4.65;;;;;;;;;;6244450;22;20023;-86
2022/02/16 09:23:34;;;;;;;;;;;;;;;;;;6250696;22;20027;-86
2022/02/16 09:26:03;;;;;;;11.32;4.85;;;;;;;;;;6217185;22;19926;-85
2022/02/16 09:28:33;;;;;;;4.70;4.25;;;;;;;;;;6245796;22;20031;-86
2022/02/16 09:31:02;;;;;;;7.55;6.82;;;;;;;;;;6217140;22;20019;-86
2022/02/16 09:33:30;;;;;;;6.40;4.88;;;;;;;;;;6242081;22;20024;-87
2022/02/16 09:35:58;;;;;;;5.40;3.45;;;;;;;;;;6248636;22;20567;-85
2022/02/16 09:38:27;;;;;;;3.60;3.22;;;;;;;;;;6216598;22;20779;-86
2022/02/16 09:40:55;;;;;;;5.70;4.45;;;;;;;;;;6216548;22;20027;-86
2022/02/16 09:43:24;;;;;;;8.57;6.90;;;;;;;;;;6250716;22;20015;-86
2022/02/16 09:45:55;;;;;;;4.57;3.88;;;;;;;;;;6192572;22;20031;-87
2022/02/16 09:48:24;;;;;;;4.00;3.53;;;;;;;;;;6241175;22;20462;-86
2022/02/16 09:50:57;;;;;;;4.13;3.72;;;;;;;;;;6216348;22;20461;-86
2022/02/16 09:53:31;;;;;;;5.57;4.43;;;;;;;;;;6216404;22;20027;-87
2022/02/16 09:56:00;;;;;;;7.63;3.97;;;;;;;;;;6248224;22;20020;-86
2022/02/16 09:58:29;;;;;;;4.32;3.92;;;;;;;;;;6252936;22;20418;-86
2022/02/16 10:01:07;;;;;;;6.50;5.00;;;;;;;;;;6219136;22;20027;-86
2022/02/16 10:03:36;;;;;;;4.95;4.30;;;;;;;;;;6276913;22;20019;-87
2022/02/16 10:06:29;;;;;;;4.70;4.30;;;;;;;;;;6217934;22;20339;-87
2022/02/16 10:08:58;;;;;;;5.68;3.88;;;;;;;;;;6215608;22;20027;-86
2022/02/16 10:11:26;;;;;;;3.70;3.13;;;;;;;;;;6215864;22;20027;-87
2022/02/16 10:14:11;;;;;;;4.75;3.22;;;;;;;;;;6216111;22;20026;-87
2022/02/16 10:16:39;;;;;;;4.57;4.15;;;;;;;;;;6241644;22;20463;-87
2022/02/16 10:19:07;;;;;;;4.97;3.00;;;;;;;;;;6217538;22;20020;-87
2022/02/16 10:21:35;;;;;;;3.53;2.95;;;;;;;;;;6216530;22;20739;-87
2022/02/16 10:24:20;;;;;;;8.67;5.37;;;;;;;;;;6240958;22;20031;-87
2022/02/16 10:26:47;;;;;;;;;;;;;;;;;;6253026;22;20015;-86
2022/02/16 10:29:21;;;;;;;4.25;3.17;;;;;;;;;;6215949;22;19919;-87
2022/02/16 10:31:49;;;;;;;4.53;4.13;;;;;;;;;;6216033;22;20026;-87
2022/02/16 10:34:18;;;;;;;4.07;2.95;;;;;;;;;;6192463;22;20020;-87
2022/02/16 10:36:46;;;;;;;3.97;3.60;;;;;;;;;;6216146;22;20348;-87
2022/02/16 10:39:23;;;;;;;4.13;3.63;;;;;;;;;;6278302;22;20030;-87
2022/02/16 10:41:57;;;;;;;4.13;3.00;;;;;;;;;;6253366;22;20339;-89
2022/02/16 10:44:31;;;;;;;3.67;3.33;;;;;;;;;;6246636;22;20019;-80
2022/02/16 10:47:04;;;;;;;4.47;4.07;;;;;;;;;;6279111;22;20426;-81
2022/02/16 10:49:33;;;;;;;3.97;2.88;;;;;;;;;;6267883;22;20031;-81
2022/02/16 10:52:12;;;;;;;3.25;2.72;;;;;;;;;;6274043;22;20034;-79
2022/02/16 10:54:40;;;;;;;3.00;2.67;;;;;;;;;;6279442;22;20026;-78
2022/02/16 10:57:09;;;;;;;2.47;2.28;;;;;;;;;;6269824;22;20032;-78
2022/02/16 10:59:37;;;;;;;2.90;2.65;;;;;;;;;;6276274;22;20027;-79
2022/02/16 11:02:08;;;;;;;2.95;2.65;;;;;;;;;;6279385;22;20012;-80
2022/02/16 11:04:36;;;;;;;1.92;1.73;;;;;;;;;;6272551;22;20059;-80
2022/02/16 11:07:05;;;;;;;2.63;2.28;;;;;;;;;;6278996;22;20012;-79
2022/02/16 11:09:35;;;;;;;2.42;2.22;;;;;;;;;;6267132;22;20031;-80
2022/02/16 11:12:03;;;;;;;2.85;2.65;;;;;;;;;;6273923;22;20028;-79
2022/02/16 11:14:33;;;;;;;2.38;2.17;;;;;;;;;;6278367;22;20334;-78
2022/02/16 11:17:01;;;;;;;3.15;2.63;;;;;;;;;;6271395;22;20467;-78
2022/02/16 11:19:38;;;;;;;3.72;3.00;;;;;;;;;;6278460;22;20027;-78
2022/02/16 11:22:10;;;;;;;4.60;3.78;;;;;;;;;;6270375;22;20019;-78
2022/02/16 11:24:42;;;;;;;4.32;3.92;;;;;;;;;;6273425;22;20019;-78
2022/02/16 11:27:31;;;;;;;2.75;2.55;;;;;;;;;;6279868;22;20016;-79
2022/02/16 11:30:00;;;;;;;2.20;2.00;;;;;;;;;;6279841;22;20026;-78
2022/02/16 11:32:36;;;;;;;4.47;2.70;;;;;;;;;;6246592;22;20019;-78
2022/02/16 11:35:18;;;;;;;2.72;2.47;;;;;;;;;;6280761;22;20019;-78
2022/02/16 11:37:47;;;;;;;3.22;2.95;;;;;;;;;;6252273;22;20034;-78
2022/02/16 11:40:17;;;;;;;3.92;2.00;;;;;;;;;;6275171;22;20023;-78
2022/02/16 11:42:48;;;;;;;3.15;2.75;;;;;;;;;;6280754;22;20015;-78
2022/02/16 11:45:38;;;;;;;3.75;2.53;;;;;;;;;;6269756;22;20023;-78
2022/02/16 11:48:07;;;;;;;2.95;2.40;;;;;;;;;;6275556;22;20042;-78
2022/02/16 11:50:39;;;;;;;2.33;2.05;;;;;;;;;;6280037;22;20012;-78
2022/02/16 11:53:10;;;;;;;2.88;2.55;;;;;;;;;;6271281;22;20455;-78
2022/02/16 11:55:42;;;;;;;2.83;2.58;;;;;;;;;;6277622;22;20022;-78
2022/02/16 11:58:14;;;;;;;3.33;3.05;;;;;;;;;;6279826;22;20442;-78
2022/02/16 12:00:56;;;;;;;2.97;2.70;;;;;;;;;;6273043;22;20474;-78
2022/02/16 12:03:26;;;;;;;5.38;2.90;;;;;;;;;;6279084;22;20012;-78
2022/02/16 12:06:01;;;;;;;4.10;3.08;;;;;;;;;;6280679;22;20015;-78
2022/02/16 12:08:30;;;;;;;3.65;3.22;;;;;;;;;;6245801;22;20071;-78
2022/02/16 12:11:19;;;;;;;4.00;2.33;;;;;;;;;;6280159;22;20331;-80
2022/02/16 12:13:47;;;;;;;4.13;3.08;;;;;;;;;;6275559;22;20027;-78
2022/02/16 12:16:21;;;;;;;3.00;2.83;;;;;;;;;;6274817;22;20019;-78
2022/02/16 12:18:50;;;;;;;3.80;3.50;;;;;;;;;;6278667;22;20069;-79
2022/02/16 12:21:25;;;;;;;3.67;3.38;;;;;;;;;;6270633;22;20027;-79
2022/02/16 12:23:59;;;;;;;2.17;2.00;;;;;;;;;;6276230;22;20514;-78
2022/02/16 12:26:28;;;;;;;2.72;2.50;;;;;;;;;;6280562;22;20023;-82
2022/02/16 12:29:02;;;;;;;3.35;3.08;;;;;;;;;;6244218;22;20058;-80
2022/02/16 12:31:33;;;;;;;2.70;2.00;;;;;;;;;;6277839;22;20030;-79
2022/02/16 12:34:11;;;;;;;2.13;2.03;;;;;;;;;;6280493;22;20023;-78
2022/02/16 12:36:46;;;;;;;1.13;0.98;;;;;;;;;;6272883;22;20030;-79
2022/02/16 12:39:21;;;;;;;2.10;2.00;;;;;;;;;;6250792;22;20040;-80
2022/02/16 12:41:49;;;;;;;1.80;1.65;;;;;;;;;;6253070;22;20019;-80
2022/02/16 12:44:21;;;;;;;2.65;1.88;;;;;;;;;;6274691;22;20027;-81
2022/02/16 12:46:51;;;;;;;1.25;1.15;;;;;;;;;;6280999;22;20009;-80
2022/02/16 12:49:21;;;;;;;1.10;1.02;;;;;;;;;;6269284;22;20019;-80
2022/02/16 12:51:51;;;;;;;2.75;1.23;;;;;;;;;;6277346;22;20020;-81
2022/02/16 12:54:20;;;;;;;2.35;2.22;;;;;;;;;;6279651;22;20016;-80
2022/02/16 12:56:52;;;;;;;2.22;2.03;;;;;;;;;;6272971;22;20038;-78
2022/02/16 12:59:22;;;;;;;1.52;1.42;;;;;;;;;;6277812;22;20023;-79
2022/02/16 13:01:51;;;;;;;1.05;1.05;;;;;;;;;;6280023;22;20019;-79
2022/02/16 13:04:20;;;;;;;1.05;1.05;;;;;;;;;;6274547;22;20023;-81
2022/02/16 13:06:54;;;;;;;1.00;1.00;;;;;;;;;;6252921;22;20012;-80
2022/02/16 13:09:24;;;;;;;1.48;1.05;;;;;;;;;;6242105;22;20034;-78
2022/02/16 13:11:54;;;;;;;1.17;1.10;;;;;;;;;;6275846;22;20027;-80
2022/02/16 13:14:23;;;;;;;2.25;0.90;;;;;;;;;;6279959;22;20336;-80
2022/02/16 13:16:57;;;;;;;1.27;1.17;;;;;;;;;;6272493;22;20035;-79
2022/02/16 13:19:43;;;;;;;1.00;1.00;;;;;;;;;;6251059;22;20024;-83
2022/02/16 13:22:13;;;;;;;0.77;0.77;;;;;;;;;;6252700;22;20548;-80
2022/02/16 13:24:53;;;;;;;1.08;0.70;;;;;;;;;;6216463;22;20034;-80
2022/02/16 13:27:22;;;;;;;0.80;0.80;;;;;;;;;;6251003;22;20011;-79
2022/02/16 13:30:00;;;;;;;0.60;0.60;;;;;;;;;;6279257;22;20011;-80
2022/02/16 13:32:30;;;;;;;1.60;1.00;;;;;;;;;;6273173;22;20027;-80
2022/02/16 13:35:02;;;;;;;1.10;1.10;;;;;;;;;;6279941;22;20039;-79
2022/02/16 13:37:31;;;;;;;0.80;0.80;;;;;;;;;;6241928;22;20027;-80
2022/02/16 13:40:06;;;;;;;1.05;1.05;;;;;;;;;;6274256;22;20034;-80
2022/02/16 13:42:34;;;;;;;0.90;0.90;;;;;;;;;;6279796;22;20050;-80
2022/02/16 13:45:03;;;;;;;1.15;1.15;;;;;;;;;;6270454;22;20015;-79
2022/02/16 13:47:51;;;;;;;0.93;0.90;;;;;;;;;;6252412;22;20023;-79
2022/02/16 13:50:27;;;;;;;2.70;1.83;;;;;;;;;;6279384;22;20012;-79
2022/02/16 13:52:56;;;;;;;1.13;1.13;;;;;;;;;;6243718;22;20256;-79
2022/02/16 13:55:26;;;;;;;0.95;0.90;;;;;;;;;;6277690;22;20332;-79
2022/02/16 13:58:07;;;;;;;1.58;1.48;;;;;;;;;;6252445;22;20432;-79
2022/02/16 14:01:08;;;;;;;0.95;0.95;;;;;;;;;;6248721;22;20680;-79
2022/02/16 14:03:37;;;;;;;1.80;1.45;;;;;;;;;;6276872;22;20020;-79
2022/02/16 14:06:06;;;;;;;1.08;1.05;;;;;;;;;;6279786;22;20019;-79
2022/02/16 14:08:35;;;;;;;0.93;0.93;;;;;;;;;;6245612;22;20024;-80
2022/02/16 14:11:07;;;;;;;1.05;1.05;;;;;;;;;;6279511;22;20332;-81
2022/02/16 14:13:36;;;;;;;2.53;2.33;;;;;;;;;;6267339;22;20019;-78
2022/02/16 14:16:06;;;;;;;1.33;1.23;;;;;;;;;;6275131;22;20024;-79
2022/02/16 14:18:35;;;;;;;0.75;0.75;;;;;;;;;;6252267;22;20016;-80
2022/02/16 14:21:03;;;;;;;1.48;1.38;;;;;;;;;;6270733;22;20019;-79
2022/02/16 14:23:39;;;;;;;0.80;0.80;;;;;;;;;;6276714;22;20012;-80
2022/02/16 14:26:07;;;;;;;0.85;0.85;;;;;;;;;;6252470;22;20020;-80
2022/02/16 14:28:35;;;;;;;0.77;0.77;;;;;;;;;;6271600;22;20020;-80
2022/02/16 14:31:07;;;;;;;1.65;0.98;;;;;;;;;;6279800;22;20023;-79
2022/02/16 14:33:38;;;;;;;0.70;0.70;;;;;;;;;;6267722;22;20023;-79
2022/02/16 14:36:07;;;;;;;1.15;1.15;;;;;;;;;;6274189;22;20028;-80
2022/02/16 14:38:39;;;;;;;2.33;1.08;;;;;;;;;;6278821;22;20499;-80
2022/02/16 14:41:11;;;;;;;0.90;0.90;;;;;;;;;;6270522;22;20164;-80
2022/02/16 14:43:39;;;;;;;1.02;0.98;;;;;;;;;;6275921;22;20023;-79
2022/02/16 14:46:08;;;;;;;0.85;0.85;;;;;;;;;;6278685;22;20016;-79
2022/02/16 14:48:36;;;;;;;1.42;1.15;;;;;;;;;;6271973;22;20020;-79
2022/02/16 14:51:04;;;;;;;1.40;1.35;;;;;;;;;;6280169;22;20023;-79
2022/02/16 14:53:32;;;;;;;1.15;1.15;;;;;;;;;;6269875;22;20024;-79
2022/02/16 14:56:00;;;;;;;2.42;1.20;;;;;;;;;;6276336;22;20023;-79
2022/02/16 14:58:28;;;;;;;0.60;0.60;;;;;;;;;;6280801;22;20012;-79
2022/02/16 15:00:56;;;;;;;1.73;1.17;;;;;;;;;;6272702;22;20501;-79
2022/02/16 15:03:24;;;;;;;1.23;1.13;;;;;;;;;;6279308;22;20048;-79
2022/02/16 15:05:52;;;;;;;1.23;0.90;;;;;;;;;;6281139;22;20035;-79